Pagina principală
METAR-TAF:

METAR-TAF

Aeroporturi :

Hoonah, Alaska, Statele Unite ale Americii

Latitudine: 58-07N, longitudine: 135-27W, elevație: 0 m

Observații meteo curente

Raportul a fost făcut în urmă cu 53 de minute, la 03:56 UTC
Vânt 8 kt de la Est
Temperatură 11°C
Umiditate 62%
Presiune 1007 hPa
Vizibilitate: 16.1 km
Nori puțini la o înălțime de 11000 picior

METAR: PAOH 270356Z AUTO 08008KT 10SM FEW110 11/04 A2973 RMK AO2 SLP069 T01110044

Ora: 20:49 (04:49 UTC)


TAF: lipsă

Observații și prognoze meteo pentru peste 4.000 de aeroporturi (rapoarte METAR și TAF).

Stațiile disponibile sunt reprezentate pe hartă prin puncte galbene și roșii.

Țineți indicatorul mouse-ului pe punctul dorit pentru a vedea denumirea stației.

Apoi, faceți clic pentru a vedea observațiile și prognozele meteorologice.

Pentru a schimba harta: Pentru mărire, faceți clic pe butoanele verzi cu cruce neagră; pentru micșorare, pe butonul verde cu o liniuță; pentru hărți învecinate, pe săgețile verzi.


METAR-TAF: